Time;durP1;ratioP1;P1;durP2;ratioP2;P2;SDS_P1;SDS_P2;PMS_P1;PMS_P2;Temp;Humidity;BMP_temperature;BMP_pressure;BME280_temperature;BME280_humidity;BME280_pressure;Samples;Min_cycle;Max_cycle;Signal;HPM_P1;HPM_P2
2022/06/06 00:01:34;;;;;;;10.68;5.53;;;;;;;15.94;100.00;98625.63;5061474;28;20029;-70
2022/06/06 00:04:00;;;;;;;8.25;5.43;;;;;;;15.99;100.00;98625.44;5061986;28;20317;-70
2022/06/06 00:06:25;;;;;;;8.95;5.65;;;;;;;16.05;100.00;98626.06;5062050;28;20025;-70
2022/06/06 00:08:50;;;;;;;6.18;4.60;;;;;;;16.18;100.00;98632.59;5056396;28;20080;-70
2022/06/06 00:11:17;;;;;;;13.50;6.03;;;;;;;16.16;100.00;98634.44;5045065;28;20032;-70
2022/06/06 00:13:44;;;;;;;9.25;5.15;;;;;;;16.19;100.00;98618.38;5059714;28;20309;-70
2022/06/06 00:16:10;;;;;;;10.07;6.18;;;;;;;16.21;100.00;98616.53;5052454;28;20040;-70
2022/06/06 00:18:36;;;;;;;24.30;5.70;;;;;;;16.23;100.00;98619.97;5048310;28;20033;-70
2022/06/06 00:21:04;;;;;;;8.70;5.88;;;;;;;16.27;100.00;98626.91;5063142;28;20037;-70
2022/06/06 00:23:29;;;;;;;12.38;5.95;;;;;;;16.31;100.00;98617.00;5047498;28;20100;-70
2022/06/06 00:25:56;;;;;;;7.95;5.03;;;;;;;16.36;100.00;98615.88;5043703;28;20209;-70
2022/06/06 00:28:22;;;;;;;6.97;4.65;;;;;;;16.47;100.00;98611.00;5046348;28;20029;-70
2022/06/06 00:30:48;;;;;;;10.30;6.05;;;;;;;16.45;100.00;98610.19;5054860;28;20374;-70
2022/06/06 00:35:59;;;;;;;12.75;5.88;;;;;;;16.46;100.00;98601.28;5061549;28;20028;-70
2022/06/06 00:38:24;;;;;;;13.50;5.93;;;;;;;16.45;100.00;98599.56;5059964;28;20025;-70
2022/06/06 00:40:50;;;;;;;14.77;6.05;;;;;;;16.41;100.00;98597.94;5043819;28;20021;-70
2022/06/06 00:43:16;;;;;;;11.55;5.78;;;;;;;16.36;100.00;98594.63;5060081;28;20067;-70
2022/06/06 00:45:42;;;;;;;13.23;5.85;;;;;;;16.28;100.00;98596.75;5062731;28;20023;-70
2022/06/06 00:48:32;;;;;;;6.88;4.93;;;;;;;16.27;100.00;98594.16;5062172;28;20047;-70
2022/06/06 00:51:04;;;;;;;9.00;4.68;;;;;;;16.25;100.00;98586.25;5043371;28;20234;-70
2022/06/06 00:53:37;;;;;;;8.13;5.25;;;;;;;16.22;100.00;98581.06;5043803;28;20037;-70
2022/06/06 00:56:13;;;;;;;9.30;5.38;;;;;;;16.20;100.00;98585.56;5044591;28;20032;-70
2022/06/06 00:58:40;;;;;;;10.05;5.65;;;;;;;16.09;100.00;98585.19;5047216;28;20028;-70
2022/06/06 01:01:06;;;;;;;6.57;4.50;;;;;;;16.00;100.00;98585.56;5058631;28;20021;-70
2022/06/06 01:03:35;;;;;;;7.70;5.10;;;;;;;15.95;100.00;98586.69;5063339;28;20221;-70
2022/06/06 01:06:01;;;;;;;12.32;5.20;;;;;;;15.87;100.00;98584.34;5066313;28;20028;-70
2022/06/06 01:08:27;;;;;;;9.55;6.00;;;;;;;15.85;100.00;98585.34;5063987;28;20343;-70
2022/06/06 01:10:53;;;;;;;6.75;4.97;;;;;;;15.81;100.00;98576.63;5052013;28;20028;-70
2022/06/06 01:13:22;;;;;;;7.85;5.38;;;;;;;15.77;100.00;98575.03;5057887;28;20336;-70
2022/06/06 01:15:54;;;;;;;9.52;5.40;;;;;;;15.70;100.00;98578.88;5046979;28;20079;-70
2022/06/06 01:18:19;;;;;;;11.23;5.78;;;;;;;15.67;100.00;98573.69;5047338;28;20092;-70
2022/06/06 01:21:10;;;;;;;11.13;5.90;;;;;;;15.69;100.00;98569.16;5057723;28;20199;-70
2022/06/06 01:23:59;;;;;;;7.90;5.03;;;;;;;15.66;100.00;98563.97;5053681;28;20264;-70
2022/06/06 01:26:29;;;;;;;9.25;6.35;;;;;;;15.70;100.00;98567.38;5065668;28;20028;-70
2022/06/06 01:29:23;;;;;;;8.05;5.35;;;;;;;15.58;100.00;98565.22;5060372;28;20052;-70
2022/06/06 01:31:55;;;;;;;11.13;5.78;;;;;;;15.64;100.00;98565.84;5049888;28;20047;-70
2022/06/06 01:34:28;;;;;;;6.95;5.07;;;;;;;15.53;100.00;98557.44;5065866;28;20040;-70
2022/06/06 01:36:56;;;;;;;8.57;5.00;;;;;;;15.46;100.00;98557.75;5057120;28;20048;-70
2022/06/06 01:39:24;;;;;;;7.28;5.07;;;;;;;15.39;100.00;98561.56;5057212;28;20039;-70
2022/06/06 01:42:12;;;;;;;9.07;5.88;;;;;;;15.36;100.00;98559.88;5058022;28;20025;-70
2022/06/06 01:44:48;;;;;;;8.23;5.95;;;;;;;15.31;100.00;98561.84;5045260;28;20037;-70
2022/06/06 01:47:20;;;;;;;10.13;6.13;;;;;;;15.29;100.00;98563.69;5046047;28;20140;-70
2022/06/06 01:49:45;;;;;;;;;;;;;;;15.21;100.00;98560.47;5057838;28;20352;-70
2022/06/06 01:52:14;;;;;;;8.70;5.28;;;;;;;15.16;100.00;98555.34;5065368;28;19975;-70
2022/06/06 01:54:42;;;;;;;12.93;6.30;;;;;;;15.16;100.00;98562.44;5057254;28;20113;-70
2022/06/06 01:57:11;;;;;;;9.93;6.35;;;;;;;15.11;100.00;98554.69;5064790;28;20021;-70
2022/06/06 01:59:37;;;;;;;13.07;6.28;;;;;;;15.09;100.00;98556.50;5061676;28;20027;-70
2022/06/06 02:02:03;;;;;;;9.07;5.57;;;;;;;15.09;100.00;98555.63;5059383;28;20021;-70
2022/06/06 02:04:29;;;;;;;8.48;5.93;;;;;;;15.06;100.00;98555.75;5065180;28;20197;-70
2022/06/06 02:06:54;;;;;;;7.22;5.30;;;;;;;15.04;100.00;98552.31;5065069;28;20027;-70
2022/06/06 02:09:20;;;;;;;9.50;6.07;;;;;;;15.01;100.00;98552.44;5057215;28;20025;-70
2022/06/06 02:11:48;;;;;;;8.55;5.63;;;;;;;15.02;100.00;98549.72;5064887;28;20075;-70
2022/06/06 02:14:14;;;;;;;8.80;5.85;;;;;;;14.97;100.00;98551.66;5057002;28;20028;-70
2022/06/06 02:16:40;;;;;;;10.05;6.03;;;;;;;14.94;100.00;98553.59;5047818;28;20025;-70
2022/06/06 02:19:06;;;;;;;9.00;5.63;;;;;;;14.90;100.00;98554.59;5053238;28;20087;-70
2022/06/06 02:21:32;;;;;;;11.65;6.28;;;;;;;14.89;100.00;98555.53;5066406;28;20025;-70
2022/06/06 02:23:58;;;;;;;10.20;5.85;;;;;;;14.88;100.00;98556.47;5067287;28;20321;-70
2022/06/06 02:26:24;;;;;;;9.40;5.72;;;;;;;14.93;100.00;98555.38;5049708;28;20355;-70
2022/06/06 02:28:49;;;;;;;9.02;6.00;;;;;;;14.85;100.00;98551.28;5051233;28;20025;-70
2022/06/06 02:31:15;;;;;;;13.68;5.75;;;;;;;14.85;100.00;98548.63;5053359;28;20025;-70
2022/06/06 02:33:40;;;;;;;8.75;5.57;;;;;;;14.81;100.00;98547.03;5057626;28;20036;-70
2022/06/06 02:36:06;;;;;;;9.27;5.75;;;;;;;14.75;100.00;98549.91;5046287;28;20329;-70
2022/06/06 02:38:32;;;;;;;14.13;5.78;;;;;;;14.76;100.00;98552.50;5045576;28;20048;-70
2022/06/06 02:41:10;;;;;;;12.27;6.18;;;;;;;14.68;100.00;98543.97;5060801;28;20311;-70
2022/06/06 02:43:37;;;;;;;9.63;6.13;;;;;;;14.66;100.00;98543.16;5045128;28;20032;-70
2022/06/06 02:46:04;;;;;;;15.48;6.45;;;;;;;14.62;100.00;98538.88;5048459;28;20338;-70
2022/06/06 02:48:30;;;;;;;8.40;5.30;;;;;;;14.59;100.00;98548.75;5064083;28;20163;-70
2022/06/06 02:50:56;;;;;;;9.32;5.75;;;;;;;14.63;100.00;98542.41;5044881;28;20033;-70
2022/06/06 02:53:22;;;;;;;10.38;5.72;;;;;;;14.63;100.00;98550.34;5051216;28;20029;-70
2022/06/06 02:55:51;;;;;;;11.05;5.70;;;;;;;14.58;100.00;98555.81;5054669;28;20356;-70
2022/06/06 02:58:16;;;;;;;8.10;5.32;;;;;;;14.55;100.00;98565.63;5051119;28;20017;-70
2022/06/06 03:00:43;;;;;;;11.27;5.70;;;;;;;14.58;100.00;98562.88;5061261;28;20220;-70
2022/06/06 03:03:09;;;;;;;10.35;6.20;;;;;;;14.52;100.00;98563.09;5055057;28;20021;-70
2022/06/06 03:05:49;;;;;;;10.10;5.90;;;;;;;14.48;100.00;98566.78;5044614;28;20048;-70
2022/06/06 03:08:34;;;;;;;11.15;5.13;;;;;;;14.40;100.00;98564.41;5048850;28;20021;-70
2022/06/06 03:11:22;;;;;;;7.47;5.07;;;;;;;14.41;100.00;98566.16;5060993;28;20079;-70
2022/06/06 03:13:50;;;;;;;8.80;4.93;;;;;;;14.45;100.00;98572.19;5063870;28;20033;-70
2022/06/06 03:22:21;;;;;;;7.20;4.93;;;;;;;14.72;100.00;98561.47;5044379;28;20036;-70
2022/06/06 03:24:49;;;;;;;7.63;5.22;;;;;;;14.74;100.00;98562.28;5044279;28;20017;-70
2022/06/06 03:27:50;;;;;;;9.85;5.75;;;;;;;14.76;100.00;98562.22;5060753;28;20021;-70
2022/06/06 03:30:43;;;;;;;8.70;4.95;;;;;;;14.78;100.00;98568.34;5044220;28;20044;-70
2022/06/06 03:33:19;;;;;;;9.60;5.63;;;;;;;14.77;100.00;98558.63;5045358;28;20028;-70
2022/06/06 03:36:28;;;;;;;9.75;5.50;;;;;;;14.76;100.00;98560.44;5063051;28;20027;-70
2022/06/06 03:39:19;;;;;;;9.18;5.47;;;;;;;14.75;100.00;98555.19;5050569;28;20037;-70
2022/06/06 03:41:53;;;;;;;8.88;5.53;;;;;;;14.70;100.00;98557.16;5044129;28;20206;-70
2022/06/06 03:44:29;;;;;;;7.50;5.00;;;;;;;14.75;100.00;98555.19;5044015;28;20025;-70
2022/06/06 03:47:20;;;;;;;8.23;5.55;;;;;;;14.75;100.00;98550.75;5044011;28;20061;-70
2022/06/06 03:49:52;;;;;;;9.20;4.90;;;;;;;14.76;100.00;98547.19;5062873;28;20075;-70
2022/06/06 03:52:33;;;;;;;8.63;5.03;;;;;;;14.79;100.00;98554.16;5063147;28;20033;-70
2022/06/06 03:55:37;;;;;;;10.77;5.75;;;;;;;14.88;100.00;98546.72;5056212;28;20260;-70
2022/06/06 03:58:04;;;;;;;8.45;4.72;;;;;;;14.94;100.00;98550.94;5045446;28;20344;-70
2022/06/06 04:00:31;;;;;;;7.45;5.43;;;;;;;14.99;100.00;98546.31;5063076;28;20076;-70
2022/06/06 04:02:59;;;;;;;7.53;4.93;;;;;;;15.00;100.00;98548.06;5054166;28;20266;-70
2022/06/06 04:05:24;;;;;;;7.10;4.88;;;;;;;15.05;100.00;98543.44;5060115;28;20056;-70
2022/06/06 04:07:50;;;;;;;7.63;5.07;;;;;;;15.08;100.00;98543.31;5060259;28;20044;-70
2022/06/06 04:10:16;;;;;;;7.40;5.15;;;;;;;15.07;100.00;98546.91;5044060;28;20023;-70
2022/06/06 04:13:09;;;;;;;8.00;4.85;;;;;;;15.02;100.00;98555.03;5044863;28;20087;-70
2022/06/06 04:15:50;;;;;;;8.27;4.40;;;;;;;14.99;100.00;98554.25;5057651;28;20312;-70
2022/06/06 04:18:37;;;;;;;7.60;4.80;;;;;;;15.02;100.00;98548.84;5056958;28;20071;-70
2022/06/06 04:21:30;;;;;;;7.25;4.35;;;;;;;15.08;100.00;98548.63;5043702;28;20032;-70
2022/06/06 04:24:13;;;;;;;7.05;4.78;;;;;;;15.07;100.00;98557.50;5043314;28;20037;-70
2022/06/06 04:27:21;;;;;;;6.85;4.78;;;;;;;15.06;100.00;98556.63;5043614;28;20029;-70
2022/06/06 04:29:56;;;;;;;7.57;5.18;;;;;;;15.11;100.00;98559.97;5059017;28;20024;-70
2022/06/06 04:32:49;;;;;;;6.55;4.28;;;;;;;15.18;100.00;98561.47;5043586;28;20203;-70
2022/06/06 04:35:57;;;;;;;6.32;4.50;;;;;;;15.27;100.00;98568.19;5051699;28;20091;-70
2022/06/06 04:39:00;;;;;;;8.13;4.60;;;;;;;15.44;100.00;98573.72;5051579;28;20032;-70
2022/06/06 04:41:25;;;;;;;5.78;4.10;;;;;;;15.44;100.00;98568.41;5047319;28;20233;-70
2022/06/06 04:44:07;;;;;;;6.75;4.45;;;;;;;15.47;100.00;98570.09;5052972;28;20029;-70
2022/06/06 04:46:43;;;;;;;7.00;4.65;;;;;;;15.55;100.00;98570.63;5066697;28;20190;-70
2022/06/06 04:49:10;;;;;;;6.45;4.53;;;;;;;15.63;100.00;98574.72;5053651;28;20027;-70
2022/06/06 04:51:38;;;;;;;12.57;4.82;;;;;;;15.68;100.00;98578.06;5062957;28;20082;-70
2022/06/06 04:54:04;;;;;;;6.65;4.57;;;;;;;15.74;100.00;98580.47;5057966;28;20095;-70
2022/06/06 04:56:32;;;;;;;7.60;4.13;;;;;;;15.77;100.00;98579.47;5060553;28;20017;-70
2022/06/06 04:59:01;;;;;;;6.57;4.25;;;;;;;15.81;100.00;98584.59;5056677;28;20213;-70
2022/06/06 05:01:27;;;;;;;7.57;4.68;;;;;;;15.78;100.00;98584.72;5063454;28;20028;-70
2022/06/06 05:03:53;;;;;;;9.52;4.93;;;;;;;15.89;100.00;98587.81;5061723;28;20021;-70
2022/06/06 05:06:37;;;;;;;13.73;4.97;;;;;;;15.95;100.00;98582.22;5054971;28;20025;-70
2022/06/06 05:09:50;;;;;;;9.60;4.95;;;;;;;15.97;100.00;98593.66;5047987;28;20031;-70
2022/06/06 05:12:55;;;;;;;8.05;4.40;;;;;;;15.98;100.00;98598.03;5063202;28;20024;-70
2022/06/06 05:15:37;;;;;;;7.47;4.10;;;;;;;15.97;100.00;98593.66;5064261;28;20025;-70
2022/06/06 05:18:33;;;;;;;5.70;3.95;;;;;;;16.07;100.00;98602.09;5063437;28;20305;-70
2022/06/06 05:21:22;;;;;;;9.88;4.30;;;;;;;16.10;100.00;98597.50;5055550;28;20032;-70
2022/06/06 05:24:00;;;;;;;11.45;4.95;;;;;;;16.11;100.00;98604.53;5059008;28;20044;-70
2022/06/06 05:26:28;;;;;;;5.88;4.00;;;;;;;16.17;100.00;98603.44;5046440;28;20033;-70
2022/06/06 05:29:06;;;;;;;7.38;4.13;;;;;;;16.24;100.00;98603.13;5056882;28;20029;-70
2022/06/06 05:32:00;;;;;;;9.20;4.82;;;;;;;16.25;100.00;98604.84;5052886;28;20317;-70
2022/06/06 05:34:33;;;;;;;12.23;4.50;;;;;;;16.23;100.00;98609.34;5046161;28;20037;-70
2022/06/06 05:37:17;;;;;;;8.18;4.53;;;;;;;16.31;100.00;98601.94;5046312;28;20029;-70
2022/06/06 05:39:48;;;;;;;7.53;4.85;;;;;;;16.36;100.00;98610.53;5054098;28;20111;-70
2022/06/06 05:42:14;;;;;;;7.43;4.35;;;;;;;16.42;100.00;98609.44;5065920;28;20213;-70
2022/06/06 05:44:54;;;;;;;7.18;4.70;;;;;;;16.33;100.00;98621.31;5057088;28;20101;-70
2022/06/06 05:47:38;;;;;;;10.07;4.88;;;;;;;16.35;100.00;98614.16;5065196;28;20028;-70
2022/06/06 05:50:04;;;;;;;7.20;4.13;;;;;;;16.38;100.00;98608.69;5056947;28;20095;-70
2022/06/06 05:52:57;;;;;;;9.25;4.95;;;;;;;16.45;100.00;98612.84;5052419;28;20143;-70
2022/06/06 05:55:41;;;;;;;;;;;;;;;16.44;100.00;98612.91;5046599;28;20028;-70
2022/06/06 05:58:40;;;;;;;8.88;4.32;;;;;;;16.49;100.00;98633.03;5048571;28;19913;-70
2022/06/06 06:01:24;;;;;;;13.55;4.47;;;;;;;16.49;99.05;98613.59;5048145;28;20351;-70
2022/06/06 06:04:37;;;;;;;6.15;4.43;;;;;;;16.63;98.24;98619.16;5049729;28;20079;-70
2022/06/06 06:07:40;;;;;;;7.85;4.88;;;;;;;16.63;98.02;98620.03;5048781;28;20348;-70
2022/06/06 06:10:19;;;;;;;10.20;4.55;;;;;;;16.62;98.70;98613.00;5042059;28;20037;-70
2022/06/06 06:12:53;;;;;;;6.93;4.60;;;;;;;16.60;98.61;98614.84;5045603;28;20036;-70
2022/06/06 06:15:28;;;;;;;8.32;4.55;;;;;;;16.63;97.84;98619.16;5055954;28;20213;-70
2022/06/06 06:17:55;;;;;;;7.70;4.78;;;;;;;16.60;99.31;98630.81;5050991;28;20336;-70
2022/06/06 06:20:26;;;;;;;6.53;4.43;;;;;;;16.62;99.62;98628.94;5045436;28;20025;-70
2022/06/06 06:22:56;;;;;;;8.70;4.53;;;;;;;16.65;100.00;98638.56;5053160;28;20082;-70
2022/06/06 06:25:24;;;;;;;6.45;4.38;;;;;;;16.66;100.00;98641.16;5045354;28;20025;-70
2022/06/06 06:27:52;;;;;;;7.13;4.57;;;;;;;16.70;99.30;98636.56;5046522;28;20044;-70
2022/06/06 06:30:18;;;;;;;9.75;4.88;;;;;;;16.79;99.43;98637.03;5046399;28;20028;-70
2022/06/06 06:33:18;;;;;;;6.22;4.68;;;;;;;17.06;100.00;98640.28;5053871;28;20022;-70
2022/06/06 06:36:08;;;;;;;6.60;4.50;;;;;;;17.01;98.17;98651.09;5045281;28;20094;-70
2022/06/06 06:38:59;;;;;;;6.13;4.22;;;;;;;17.08;97.40;98649.91;5050148;28;20021;-70
2022/06/06 06:41:46;;;;;;;10.17;4.70;;;;;;;17.11;96.69;98649.75;5064642;28;20028;-70
2022/06/06 06:44:20;;;;;;;7.75;4.57;;;;;;;17.20;95.51;98653.78;5047278;28;20467;-71
2022/06/06 06:46:57;;;;;;;7.60;4.03;;;;;;;17.23;97.87;98659.84;5044919;28;20025;-71
2022/06/06 06:49:25;;;;;;;5.55;3.88;;;;;;;17.18;97.02;98651.19;5055994;28;20084;-71
2022/06/06 06:52:12;;;;;;;6.82;4.45;;;;;;;17.07;96.72;98656.16;5058120;28;20038;-71
2022/06/06 06:54:55;;;;;;;9.00;5.28;;;;;;;17.08;96.80;98655.22;5055005;28;20048;-71
2022/06/06 06:57:52;;;;;;;6.57;4.32;;;;;;;17.51;96.32;98658.59;5063431;28;20020;-71
2022/06/06 07:00:23;;;;;;;5.80;3.78;;;;;;;17.74;95.63;98661.03;5062179;28;20316;-71
2022/06/06 07:09:16;;;;;;;5.32;3.65;;;;;;;18.63;92.15;98662.81;5049979;28;20078;-71
2022/06/06 07:11:59;;;;;;;5.25;3.58;;;;;;;18.80;87.78;98660.16;5047083;28;20036;-71
2022/06/06 07:15:02;;;;;;;5.35;3.30;;;;;;;19.10;87.71;98661.19;5044768;28;20351;-71
2022/06/06 07:17:33;;;;;;;5.95;3.95;;;;;;;18.85;87.02;98653.63;5048716;28;20025;-71
2022/06/06 07:20:03;;;;;;;6.35;3.97;;;;;;;19.07;88.13;98656.03;5047269;28;20035;-71
2022/06/06 07:22:59;;;;;;;8.00;3.88;;;;;;;18.99;87.40;98655.59;5057913;28;20079;-71
2022/06/06 07:25:20;;;;;;;6.45;3.90;;;;;;;19.57;84.50;98656.88;5043204;28;20060;-71
2022/06/06 07:27:45;;;;;;;5.93;3.70;;;;;;;19.96;81.93;98657.31;5054787;28;20025;-71
2022/06/06 07:30:11;;;;;;;7.50;3.63;;;;;;;20.16;81.82;98661.56;5051968;28;20040;-71
2022/06/06 07:32:52;;;;;;;6.82;3.72;;;;;;;21.33;79.16;98658.97;5043264;28;20067;-71
2022/06/06 07:35:39;;;;;;;4.97;3.20;;;;;;;20.93;78.28;98656.03;5043244;28;20052;-71
2022/06/06 07:38:12;;;;;;;4.60;2.88;;;;;;;20.33;80.56;98659.66;5057111;28;20024;-71
2022/06/06 07:40:47;;;;;;;6.03;3.50;;;;;;;21.08;79.06;98649.75;5063364;28;20070;-71
2022/06/06 07:43:29;;;;;;;5.55;3.35;;;;;;;21.16;80.55;98647.47;5061037;28;20029;-71
2022/06/06 07:46:04;;;;;;;5.70;3.85;;;;;;;20.58;80.15;98638.53;5051253;28;20028;-71
2022/06/06 07:49:06;;;;;;;7.32;3.60;;;;;;;20.92;79.83;98645.41;5043005;28;20049;-71
2022/06/06 07:51:56;;;;;;;4.15;3.40;;;;;;;21.54;79.13;98647.75;5042943;28;20113;-71
2022/06/06 07:54:37;;;;;;;4.38;3.33;;;;;;;22.93;73.96;98650.09;5043007;28;20029;-71
2022/06/06 07:57:42;;;;;;;4.55;3.25;;;;;;;22.37;72.99;98653.06;5049630;28;20028;-71
2022/06/06 08:00:13;;;;;;;7.30;3.42;;;;;;;23.32;70.86;98647.41;5041427;28;20041;-71
2022/06/06 08:02:51;;;;;;;4.72;3.22;;;;;;;22.77;73.75;98649.44;5042868;28;20035;-71
2022/06/06 08:05:22;;;;;;;5.03;2.95;;;;;;;23.73;68.72;98641.75;5042794;28;20248;-71
2022/06/06 08:08:08;;;;;;;3.80;3.00;;;;;;;24.89;64.66;98634.72;5042915;28;20025;-71
2022/06/06 08:10:47;;;;;;;5.90;2.75;;;;;;;24.06;64.46;98634.81;5042425;28;20040;-71
2022/06/06 08:13:48;;;;;;;4.88;2.80;;;;;;;24.24;65.42;98628.06;5046170;28;20029;-71
2022/06/06 08:16:38;;;;;;;5.65;3.00;;;;;;;25.35;63.99;98634.72;5046838;28;20234;-71
2022/06/06 08:19:30;;;;;;;4.07;2.97;;;;;;;25.37;62.44;98623.81;5056407;28;20041;-71
2022/06/06 08:21:56;;;;;;;6.97;2.78;;;;;;;25.77;62.00;98625.03;5066353;28;20025;-71
2022/06/06 08:24:28;;;;;;;7.85;3.13;;;;;;;25.82;60.00;98612.91;5066379;28;20028;-71
2022/06/06 08:26:57;;;;;;;3.88;2.13;;;;;;;26.27;56.86;98619.09;5066561;28;20063;-71
2022/06/06 08:29:25;;;;;;;6.18;2.80;;;;;;;25.27;61.88;98613.75;5066640;28;20014;-71
2022/06/06 08:31:51;;;;;;;5.68;2.42;;;;;;;24.84;63.25;98612.66;5052929;28;20033;-71
2022/06/06 08:34:17;;;;;;;3.53;2.25;;;;;;;24.48;61.06;98610.06;5046541;28;20089;-72
2022/06/06 08:37:16;;;;;;;4.32;2.38;;;;;;;23.76;62.58;98599.38;5046321;28;20320;-72
2022/06/06 08:40:13;;;;;;;3.53;2.40;;;;;;;23.28;65.36;98603.75;5046453;28;20067;-72
2022/06/06 08:43:01;;;;;;;3.30;2.20;;;;;;;23.25;66.18;98611.16;5046387;28;20034;-72
2022/06/06 08:46:17;;;;;;;2.97;2.15;;;;;;;22.82;67.16;98615.09;5047123;28;20025;-72
2022/06/06 08:52:29;;;;;;;6.10;2.45;;;;;;;22.29;69.09;98605.31;5046235;28;20032;-72
2022/06/06 08:55:13;;;;;;;4.85;2.67;;;;;;;22.22;69.65;98603.13;5046519;28;20239;-71
2022/06/06 08:57:59;;;;;;;4.95;2.13;;;;;;;22.10;67.94;98609.28;5046116;28;20066;-71
2022/06/06 09:01:16;;;;;;;4.80;2.22;;;;;;;21.47;70.26;98605.38;5046089;28;20256;-71
2022/06/06 09:04:10;;;;;;;3.97;2.13;;;;;;;21.08;71.99;98606.91;5034123;28;20036;-71
2022/06/06 09:06:47;;;;;;;4.65;2.42;;;;;;;20.84;73.95;98608.41;5065566;28;20028;-71
2022/06/06 09:09:37;;;;;;;6.63;3.10;;;;;;;20.64;76.55;98614.13;5065881;28;20047;-71
2022/06/06 09:12:33;;;;;;;4.85;2.80;;;;;;;20.43;79.85;98611.84;5065823;28;20029;-71
2022/06/06 09:15:27;;;;;;;9.98;4.38;;;;;;;20.02;83.41;98622.22;5059334;28;20025;-71
2022/06/06 09:17:58;;;;;;;12.10;3.65;;;;;;;19.36;86.87;98615.31;5061871;28;20143;-71
2022/06/06 09:20:42;;;;;;;5.82;3.72;;;;;;;19.21;89.57;98617.00;5082564;28;20029;-71
2022/06/06 09:23:22;;;;;;;7.60;3.83;;;;;;;19.08;89.10;98625.75;5079603;28;20036;-71
2022/06/06 09:25:59;;;;;;;4.63;3.20;;;;;;;18.94;88.66;98622.94;5065497;28;20084;-71
2022/06/06 09:28:46;;;;;;;4.85;3.20;;;;;;;18.98;89.98;98614.69;5065101;28;20029;-71
2022/06/06 09:31:45;;;;;;;6.18;3.08;;;;;;;19.02;91.19;98605.59;5066790;28;20028;-71
2022/06/06 09:34:29;;;;;;;6.80;3.30;;;;;;;18.69;91.35;98606.50;5061929;28;20032;-71
2022/06/06 09:37:06;;;;;;;6.03;2.25;;;;;;;18.73;91.41;98618.75;5045397;28;20025;-71
2022/06/06 09:39:35;;;;;;;3.92;2.70;;;;;;;18.74;89.86;98613.34;5045616;28;20400;-71
2022/06/06 09:42:01;;;;;;;5.20;2.35;;;;;;;18.74;90.69;98609.81;5044936;28;20080;-71
2022/06/06 09:44:38;;;;;;;4.22;2.75;;;;;;;19.01;90.83;98608.34;5045290;28;20075;-71
2022/06/06 09:47:09;;;;;;;2.88;2.40;;;;;;;20.62;89.68;98599.97;5045112;28;20051;-71
2022/06/06 09:49:54;;;;;;;2.28;2.00;;;;;;;20.19;84.43;98598.09;5057355;28;20028;-71
2022/06/06 09:52:29;;;;;;;3.80;2.88;;;;;;;19.97;84.32;98597.63;5082789;28;20517;-71
2022/06/06 10:01:16;;;;;;;5.55;2.90;;;;;;;20.01;86.26;98599.16;5064936;28;20047;-71
2022/06/06 10:04:15;;;;;;;3.42;2.80;;;;;;;19.75;85.38;98589.09;5052783;28;20052;-71
2022/06/06 10:07:04;;;;;;;7.57;3.20;;;;;;;19.61;85.17;98588.16;5069490;28;20029;-71
2022/06/06 10:09:55;;;;;;;4.35;2.53;;;;;;;19.62;83.40;98585.41;5078415;28;20080;-71
2022/06/06 10:12:46;;;;;;;3.43;2.50;;;;;;;19.78;81.69;98590.72;5044659;28;20079;-71
2022/06/06 10:15:17;;;;;;;4.82;2.50;;;;;;;20.04;83.68;98588.28;5060724;28;20021;-71
2022/06/06 10:18:24;;;;;;;5.80;2.80;;;;;;;20.13;84.74;98593.13;5064335;28;20061;-71
2022/06/06 10:20:53;;;;;;;5.07;2.80;;;;;;;20.33;82.46;98589.28;5063300;28;20036;-71
2022/06/06 10:23:45;;;;;;;3.58;2.25;;;;;;;20.34;81.95;98581.16;5065080;28;20052;-71
2022/06/06 10:26:35;;;;;;;2.67;1.70;;;;;;;20.23;80.68;98594.31;5054114;28;20021;-71
2022/06/06 10:29:18;;;;;;;3.25;1.70;;;;;;;20.04;79.80;98580.28;5049450;28;20064;-71
2022/06/06 10:32:22;;;;;;;2.22;1.83;;;;;;;20.06;78.64;98575.69;5047624;28;20029;-71
2022/06/06 10:35:13;;;;;;;2.08;1.60;;;;;;;20.03;78.01;98575.00;5043379;28;20029;-71
2022/06/06 10:37:47;;;;;;;3.75;1.70;;;;;;;19.96;78.34;98571.81;5046303;28;20029;-71
2022/06/06 10:40:27;;;;;;;3.75;1.55;;;;;;;20.08;81.28;98573.78;5059696;28;20025;-71
2022/06/06 10:43:20;;;;;;;1.98;1.60;;;;;;;20.10;78.96;98577.25;5044417;28;20025;-71
2022/06/06 10:45:49;;;;;;;2.88;1.88;;;;;;;20.20;82.57;98582.94;5061675;28;20052;-71
2022/06/06 10:48:34;;;;;;;2.45;1.80;;;;;;;20.34;80.29;98585.66;5053605;28;20036;-71
2022/06/06 10:51:42;;;;;;;5.28;2.28;;;;;;;20.41;79.65;98582.50;5043928;28;20352;-71
2022/06/06 10:55:04;;;;;;;2.75;1.70;;;;;;;20.61;80.57;98587.56;5060103;28;20035;-71
2022/06/06 10:57:46;;;;;;;3.47;1.77;;;;;;;20.74;78.08;98585.84;5049864;28;20075;-71
2022/06/06 11:00:40;;;;;;;2.25;1.63;;;;;;;20.81;76.79;98581.84;5050785;28;20029;-71
2022/06/06 11:03:12;;;;;;;4.70;1.70;;;;;;;20.85;75.67;98578.03;5051786;28;20124;-71
2022/06/06 11:05:57;;;;;;;1.77;1.25;;;;;;;20.89;78.00;98579.53;5043690;28;20075;-71
2022/06/06 11:08:25;;;;;;;4.70;2.03;;;;;;;20.89;76.29;98568.84;5043993;28;20072;-71
2022/06/06 11:10:53;;;;;;;2.47;1.65;;;;;;;20.71;76.59;98580.69;5063090;28;20032;-71
2022/06/06 11:13:57;;;;;;;4.82;2.10;;;;;;;21.80;75.60;98579.16;5062613;28;20036;-71
2022/06/06 11:16:57;;;;;;;2.45;1.38;;;;;;;22.07;72.13;98574.66;5059353;28;20052;-71
2022/06/06 11:19:54;;;;;;;2.13;1.42;;;;;;;23.05;71.21;98566.03;5054506;28;20022;-71
2022/06/06 11:22:50;;;;;;;9.55;1.55;;;;;;;23.46;68.81;98563.97;5043438;28;20344;-71
2022/06/06 11:25:18;;;;;;;1.85;1.55;;;;;;;23.70;68.15;98567.59;5050118;28;20205;-71
2022/06/06 11:28:27;;;;;;;1.60;1.20;;;;;;;23.80;67.19;98565.94;5050800;28;20029;-71
2022/06/06 11:31:20;;;;;;;1.77;1.25;;;;;;;23.68;65.41;98557.91;5051833;28;20375;-71
2022/06/06 11:34:25;;;;;;;2.58;1.45;;;;;;;23.11;66.76;98557.56;5061926;28;20044;-71
2022/06/06 11:37:27;;;;;;;4.15;1.23;;;;;;;23.10;64.25;98548.63;5054051;28;20051;-71
2022/06/06 11:39:53;;;;;;;1.85;1.30;;;;;;;23.17;65.14;98543.69;5055335;28;20028;-71
2022/06/06 11:42:21;;;;;;;1.60;1.05;;;;;;;23.13;63.95;98534.16;5055279;28;20055;-71
2022/06/06 11:44:58;;;;;;;6.18;1.55;;;;;;;23.20;65.34;98535.41;5050871;28;20024;-71
2022/06/06 11:47:45;;;;;;;1.90;1.13;;;;;;;22.82;66.13;98534.59;5051615;28;20244;-71
2022/06/06 11:50:35;;;;;;;3.05;1.63;;;;;;;22.92;66.95;98535.66;5052576;28;20041;-71
2022/06/06 11:53:47;;;;;;;2.85;1.38;;;;;;;23.02;68.63;98532.22;5052716;28;20037;-71
2022/06/06 11:56:26;;;;;;;1.38;0.90;;;;;;;23.00;63.98;98525.25;5053504;28;20025;-71
2022/06/06 11:59:30;;;;;;;2.85;1.00;;;;;;;23.42;64.25;98524.88;5051713;28;20052;-71
2022/06/06 12:02:19;;;;;;;5.47;1.42;;;;;;;22.99;63.77;98526.19;5038657;28;20037;-71
2022/06/06 12:04:47;;;;;;;3.22;1.30;;;;;;;22.99;63.79;98531.56;5050298;28;20027;-71
2022/06/06 12:07:46;;;;;;;1.27;1.15;;;;;;;22.89;64.01;98530.50;5061323;28;20033;-71
2022/06/06 12:10:26;;;;;;;2.30;1.10;;;;;;;22.93;61.99;98537.38;5043145;28;20037;-71
2022/06/06 12:13:13;;;;;;;1.98;0.90;;;;;;;22.77;61.78;98531.34;5047475;28;20043;-71
2022/06/06 12:16:14;;;;;;;6.15;1.25;;;;;;;22.50;63.34;98522.56;5062750;28;20029;-71
2022/06/06 12:18:58;;;;;;;6.75;1.40;;;;;;;22.52;65.20;98531.34;5051812;28;20048;-71
2022/06/06 12:21:35;;;;;;;1.70;0.95;;;;;;;22.47;64.91;98523.59;5062460;28;20070;-71
2022/06/06 12:24:00;;;;;;;1.80;1.20;;;;;;;22.34;63.75;98524.53;5043966;28;20340;-71
2022/06/06 12:26:58;;;;;;;2.22;1.20;;;;;;;22.73;65.92;98524.50;5043834;28;20025;-71
2022/06/06 12:29:43;;;;;;;1.05;0.98;;;;;;;22.77;64.40;98520.63;5046547;28;20100;-71
2022/06/06 12:32:27;;;;;;;2.30;1.25;;;;;;;22.53;65.67;98507.09;5042518;28;20325;-71
2022/06/06 12:35:03;;;;;;;1.80;0.80;;;;;;;22.57;60.78;98502.38;5042632;28;20029;-71
2022/06/06 12:37:55;;;;;;;2.13;0.90;;;;;;;22.79;63.52;98497.22;5043190;28;20186;-71
2022/06/06 12:40:24;;;;;;;1.23;1.00;;;;;;;22.51;63.77;98494.75;5042698;28;20348;-71
2022/06/06 12:43:03;;;;;;;3.55;1.35;;;;;;;22.00;64.87;98500.97;5048298;28;20228;-71
2022/06/06 12:45:35;;;;;;;2.28;1.13;;;;;;;21.59;63.94;98500.16;5059067;28;20063;-71
2022/06/06 12:48:31;;;;;;;1.10;0.85;;;;;;;21.55;64.57;98494.16;5042607;28;20057;-71
2022/06/06 12:51:06;;;;;;;1.77;1.27;;;;;;;21.54;63.14;98499.59;5042630;28;20329;-71